Time;durP1;ratioP1;P1;durP2;ratioP2;P2;SDS_P1;SDS_P2;PMS_P1;PMS_P2;Temp;Humidity;BMP_temperature;BMP_pressure;BME280_temperature;BME280_humidity;BME280_pressure;Samples;Min_cycle;Max_cycle;Signal;HPM_P1;HPM_P2
2022/11/06 00:00:17;;;;;;;;;;;;;;;24.80;47.27;94547.63;4898010;29;7244;-56
2022/11/06 00:03:03;;;;;;;;;;;;;;;24.81;47.83;94538.16;4898677;29;9323;-56
2022/11/06 00:09:02;;;;;;;;;;;;;;;24.79;47.88;94535.16;4993326;28;8424;-58
2022/11/06 00:11:54;;;;;;;;;;;;;;;24.79;47.81;94541.41;4927055;28;7008;-56
2022/11/06 00:14:35;;;;;;;;;;;;;;;24.80;47.51;94544.88;4910225;29;7111;-56
2022/11/06 00:17:09;;;;;;;;;;;;;;;24.83;47.55;94558.41;4928424;28;8813;-56
2022/11/06 00:20:11;;;;;;;;;;;;;;;24.80;46.88;94559.41;4928922;28;7144;-56
2022/11/06 00:22:37;;;;;;;;;;;;;;;24.79;47.27;94565.41;4914663;29;9302;-56
2022/11/06 00:25:08;;;;;;;;;;;;;;;24.80;47.51;94550.38;4888854;29;7323;-56
2022/11/06 00:27:40;;;;;;;;;;;;;;;24.75;47.39;94540.88;4896472;29;6986;-56
2022/11/06 00:30:08;;;;;;;;;;;;;;;24.73;47.73;94546.88;4894467;29;7216;-56
2022/11/06 00:32:34;;;;;;;;;;;;;;;24.73;47.94;94540.63;4911756;29;7214;-57
2022/11/06 00:35:02;;;;;;;;;;;;;;;24.74;47.97;94547.63;4911873;29;8170;-58
2022/11/06 00:37:38;;;;;;;;;;;;;;;24.71;47.72;94532.88;4907169;29;8355;-57
2022/11/06 00:40:05;;;;;;;;;;;;;;;24.73;47.55;94535.88;4900471;29;7361;-56
2022/11/06 00:42:31;;;;;;;;;;;;;;;24.71;47.95;94527.38;4914186;29;10377;-56
2022/11/06 00:44:57;;;;;;;;;;;;;;;24.70;48.14;94523.13;4898456;29;7026;-58
2022/11/06 00:47:27;;;;;;;;;;;;;;;24.62;47.83;94513.88;4922228;28;9063;-56
2022/11/06 00:49:53;;;;;;;;;;;;;;;24.63;48.10;94500.88;4963995;28;8379;-56
2022/11/06 00:52:19;;;;;;;;;;;;;;;24.61;47.67;94500.63;4954179;28;7357;-57
2022/11/06 00:54:47;;;;;;;;;;;;;;;24.57;48.37;94495.41;4953141;28;9383;-57
2022/11/06 00:57:15;;;;;;;;;;;;;;;24.56;47.64;94493.88;4948916;28;7270;-57
2022/11/06 01:00:29;;;;;;;;;;;;;;;24.54;48.57;94479.88;4994512;28;7233;-56
2022/11/06 01:03:07;;;;;;;;;;;;;;;24.53;47.92;94464.63;4929703;29;6994;-56
2022/11/06 01:05:47;;;;;;;;;;;;;;;24.51;48.28;94464.38;4918355;29;7278;-57
2022/11/06 01:08:15;;;;;;;;;;;;;;;24.52;47.99;94471.41;4922802;29;8659;-57
2022/11/06 01:11:18;;;;;;;;;;;;;;;24.52;48.43;94489.88;4933223;29;7005;-56
2022/11/06 01:14:13;;;;;;;;;;;;;;;24.51;48.21;94499.41;4915040;29;8911;-56
2022/11/06 01:16:58;;;;;;;;;;;;;;;24.49;48.02;94497.13;4918587;29;8651;-56
2022/11/06 01:19:35;;;;;;;;;;;;;;;24.49;48.19;94501.91;4918778;29;7502;-57
2022/11/06 01:22:18;;;;;;;;;;;;;;;24.47;47.72;94499.63;4919974;28;7327;-56
2022/11/06 01:24:55;;;;;;;;;;;;;;;24.51;47.75;94510.41;4918092;29;9429;-56
2022/11/06 01:27:23;;;;;;;;;;;;;;;24.50;48.20;94517.88;4918398;29;7097;-56
2022/11/06 01:29:50;;;;;;;;;;;;;;;24.50;47.98;94509.66;4899894;29;8748;-56
2022/11/06 01:32:29;;;;;;;;;;;;;;;24.49;47.88;94510.88;4914301;29;9089;-56
2022/11/06 01:35:15;;;;;;;;;;;;;;;24.48;48.17;94503.91;4917910;29;7242;-56
2022/11/06 01:38:31;;;;;;;;;;;;;;;24.51;47.45;94508.38;4918412;29;8586;-57
2022/11/06 01:41:03;;;;;;;;;;;;;;;24.52;47.51;94514.63;4953205;28;7035;-56
2022/11/06 01:44:00;;;;;;;;;;;;;;;24.50;48.20;94506.91;4950196;28;7277;-56
2022/11/06 01:46:29;;;;;;;;;;;;;;;24.47;48.22;94502.38;4953352;28;7289;-56
2022/11/06 01:49:03;;;;;;;;;;;;;;;24.48;48.31;94495.66;4934281;29;8580;-56
2022/11/06 01:52:07;;;;;;;;;;;;;;;24.48;47.70;94486.63;4948458;28;6961;-56
2022/11/06 01:54:52;;;;;;;;;;;;;;;24.45;48.14;94488.38;4952687;28;7091;-57
2022/11/06 01:57:40;;;;;;;;;;;;;;;24.45;47.76;94482.88;4946319;28;9444;-56
2022/11/06 02:00:29;;;;;;;;;;;;;;;24.45;48.27;94482.88;4937235;28;7193;-56
2022/11/06 02:03:11;;;;;;;;;;;;;;;24.45;48.48;94469.16;4936567;28;7271;-56
2022/11/06 02:05:40;;;;;;;;;;;;;;;24.44;48.21;94470.41;4947472;28;7272;-57
2022/11/06 02:08:20;;;;;;;;;;;;;;;24.45;48.17;94477.41;4936825;28;7008;-56
2022/11/06 02:11:08;;;;;;;;;;;;;;;24.45;47.92;94471.91;4952735;28;9377;-57
2022/11/06 02:14:25;;;;;;;;;;;;;;;24.43;48.60;94463.41;4951872;28;7455;-56
2022/11/06 02:17:42;;;;;;;;;;;;;;;24.44;48.50;94453.91;4905225;29;9534;-57
2022/11/06 02:20:25;;;;;;;;;;;;;;;24.43;47.82;94452.41;4876548;29;7505;-56
2022/11/06 02:23:24;;;;;;;;;;;;;;;24.43;48.59;94451.66;4876822;29;8769;-56
2022/11/06 02:26:18;;;;;;;;;;;;;;;24.41;48.04;94460.41;4858848;29;7292;-56
2022/11/06 02:29:21;;;;;;;;;;;;;;;24.42;47.74;94464.66;4877066;29;7272;-56
2022/11/06 02:32:44;;;;;;;;;;;;;;;24.43;48.40;94457.91;4846734;29;9094;-57
2022/11/06 02:35:42;;;;;;;;;;;;;;;24.43;48.16;94457.91;4836712;29;7260;-56
2022/11/06 02:38:20;;;;;;;;;;;;;;;24.43;48.21;94452.41;4801717;29;9129;-57
2022/11/06 02:40:59;;;;;;;;;;;;;;;24.43;48.11;94446.91;4800528;29;7111;-57
2022/11/06 02:43:34;;;;;;;;;;;;;;;24.42;48.07;94434.41;4795771;29;9080;-56
2022/11/06 02:46:08;;;;;;;;;;;;;;;24.43;47.85;94435.16;4801637;29;7271;-56
2022/11/06 02:48:42;;;;;;;;;;;;;;;24.42;47.93;94426.19;4796479;29;7235;-56
2022/11/06 02:51:44;;;;;;;;;;;;;;;24.42;47.86;94420.69;4795140;29;7297;-56
2022/11/06 02:54:28;;;;;;;;;;;;;;;24.42;48.39;94406.19;4785976;29;7606;-57
2022/11/06 02:57:09;;;;;;;;;;;;;;;24.41;48.27;94405.41;4874387;29;7029;-57
2022/11/06 03:00:12;;;;;;;;;;;;;;;24.43;48.44;94391.91;4876343;29;9072;-57
2022/11/06 03:03:34;;;;;;;;;;;;;;;24.43;48.53;94385.66;4838841;29;7361;-56
2022/11/06 03:06:43;;;;;;;;;;;;;;;24.43;48.62;94371.91;4839970;29;7356;-56
2022/11/06 03:09:25;;;;;;;;;;;;;;;24.41;47.92;94372.44;4821441;29;7240;-57
2022/11/06 03:12:16;;;;;;;;;;;;;;;24.42;47.94;94359.44;4828148;29;8611;-56
2022/11/06 03:14:56;;;;;;;;;;;;;;;24.41;48.25;94353.19;4833159;29;6990;-56
2022/11/06 03:17:49;;;;;;;;;;;;;;;24.42;47.93;94349.19;4823969;29;7260;-56
2022/11/06 03:20:53;;;;;;;;;;;;;;;24.42;47.45;94342.94;4840339;29;7288;-57
2022/11/06 03:23:52;;;;;;;;;;;;;;;24.42;48.09;94351.19;4839141;29;8131;-56
2022/11/06 03:26:39;;;;;;;;;;;;;;;24.40;48.32;94353.69;4839604;29;7364;-57
2022/11/06 03:29:16;;;;;;;;;;;;;;;24.41;48.03;94355.19;4846138;29;7567;-56
2022/11/06 03:32:25;;;;;;;;;;;;;;;24.41;47.81;94368.94;4870838;29;9346;-56
2022/11/06 03:35:30;;;;;;;;;;;;;;;24.41;48.06;94368.94;4862935;29;7292;-56
2022/11/06 03:38:18;;;;;;;;;;;;;;;24.42;48.39;94375.94;4871594;29;9502;-56
2022/11/06 03:41:42;;;;;;;;;;;;;;;24.41;47.88;94385.41;4932613;29;8984;-57
2022/11/06 03:44:16;;;;;;;;;;;;;;;24.42;47.89;94389.69;4932966;29;7250;-56
2022/11/06 03:46:52;;;;;;;;;;;;;;;24.40;47.64;94392.91;4903106;29;9563;-56
2022/11/06 03:49:36;;;;;;;;;;;;;;;24.39;47.66;94385.94;4928238;29;8938;-56
2022/11/06 03:52:42;;;;;;;;;;;;;;;24.41;48.23;94385.41;4927432;29;8525;-56
2022/11/06 03:55:15;;;;;;;;;;;;;;;24.40;48.28;94381.91;4927705;29;7184;-56
2022/11/06 03:57:46;;;;;;;;;;;;;;;24.39;48.21;94372.19;4936576;29;7356;-56
2022/11/06 04:00:24;;;;;;;;;;;;;;;24.40;47.95;94378.44;4926739;29;7164;-57
2022/11/06 04:03:21;;;;;;;;;;;;;;;24.40;47.87;94376.41;4918791;29;9135;-57
2022/11/06 04:06:27;;;;;;;;;;;;;;;24.40;48.46;94379.16;4920006;29;9422;-56
2022/11/06 04:15:54;;;;;;;;;;;;;;;24.39;48.13;94377.69;5002097;28;8270;-56
2022/11/06 04:18:39;;;;;;;;;;;;;;;24.40;48.30;94375.69;4983857;28;8056;-56
2022/11/06 04:21:42;;;;;;;;;;;;;;;24.41;48.19;94374.44;4980195;28;6980;-57
2022/11/06 04:27:32;;;;;;;;;;;;;;;24.39;47.82;94369.44;4996624;28;7015;-56
2022/11/06 04:30:17;;;;;;;;;;;;;;;24.40;47.86;94370.91;4984088;28;7202;-56
2022/11/06 04:32:46;;;;;;;;;;;;;;;24.39;48.22;94366.69;4993800;28;7261;-56
2022/11/06 04:35:45;;;;;;;;;;;;;;;24.38;47.70;94376.19;4968826;28;6999;-56
2022/11/06 04:38:24;;;;;;;;;;;;;;;24.38;47.89;94373.44;4987640;28;7261;-56
2022/11/06 04:41:33;;;;;;;;;;;;;;;24.38;47.74;94373.44;4984186;28;7183;-56
2022/11/06 04:44:18;;;;;;;;;;;;;;;24.38;48.21;94378.94;4967405;28;7318;-57
2022/11/06 04:46:52;;;;;;;;;;;;;;;24.39;48.42;94385.94;4990126;28;7214;-56
2022/11/06 04:49:21;;;;;;;;;;;;;;;24.38;47.98;94381.66;4978091;28;7013;-56
2022/11/06 04:51:50;;;;;;;;;;;;;;;24.40;48.35;94375.69;5004768;28;7242;-57
2022/11/06 04:54:16;;;;;;;;;;;;;;;24.38;48.22;94359.69;4978334;28;7232;-56
2022/11/06 04:56:49;;;;;;;;;;;;;;;24.38;47.90;94351.44;4994647;28;7479;-57
2022/11/06 04:59:37;;;;;;;;;;;;;;;24.40;48.36;94350.94;4993794;28;9742;-56
2022/11/06 05:02:06;;;;;;;;;;;;;;;24.37;47.96;94349.19;4977264;28;6983;-57
2022/11/06 05:04:36;;;;;;;;;;;;;;;24.38;47.78;94348.69;4988465;28;7061;-56
2022/11/06 05:07:05;;;;;;;;;;;;;;;24.37;48.45;94333.47;5005983;28;7327;-56
2022/11/06 05:09:36;;;;;;;;;;;;;;;24.38;47.86;94340.44;4983032;28;7302;-56
2022/11/06 05:12:37;;;;;;;;;;;;;;;24.38;47.63;94345.22;4993270;28;7185;-57
2022/11/06 05:15:06;;;;;;;;;;;;;;;24.39;48.13;94341.94;4944443;28;8832;-56
2022/11/06 05:17:41;;;;;;;;;;;;;;;24.36;48.08;94337.44;4955868;28;7074;-57
2022/11/06 05:20:29;;;;;;;;;;;;;;;24.35;47.83;94335.22;4966568;28;7473;-56
2022/11/06 05:23:02;;;;;;;;;;;;;;;24.34;48.01;94337.22;4957129;28;7118;-56
2022/11/06 05:25:44;;;;;;;;;;;;;;;24.35;47.99;94332.47;4956500;28;7166;-56
2022/11/06 05:28:26;;;;;;;;;;;;;;;24.34;47.89;94326.22;4968754;28;8005;-56
2022/11/06 05:31:25;;;;;;;;;;;;;;;24.34;47.83;94328.97;4956938;28;7348;-56
2022/11/06 05:33:59;;;;;;;;;;;;;;;24.34;47.94;94320.72;4970529;28;7022;-57
2022/11/06 05:36:37;;;;;;;;;;;;;;;24.31;48.35;94297.00;4950747;28;7247;-57
2022/11/06 05:39:03;;;;;;;;;;;;;;;24.34;47.60;94301.47;4969716;28;8639;-57
2022/11/06 05:41:54;;;;;;;;;;;;;;;24.34;48.65;94317.22;4972266;28;7221;-56
2022/11/06 05:44:22;;;;;;;;;;;;;;;24.34;48.39;94311.72;4972787;28;7329;-56
2022/11/06 05:46:48;;;;;;;;;;;;;;;24.32;48.26;94314.97;4972335;28;7265;-56
2022/11/06 05:49:14;;;;;;;;;;;;;;;24.34;47.43;94323.47;4969365;28;7142;-56
2022/11/06 05:52:14;;;;;;;;;;;;;;;24.34;48.26;94328.97;4977795;28;7599;-56
2022/11/06 05:55:18;;;;;;;;;;;;;;;24.35;47.41;94319.47;4987028;28;9232;-56
2022/11/06 05:57:54;;;;;;;;;;;;;;;24.35;47.81;94324.97;4976881;28;7220;-56
2022/11/06 06:00:20;;;;;;;;;;;;;;;24.35;48.08;94324.22;4984113;28;7304;-57
2022/11/06 06:03:04;;;;;;;;;;;;;;;24.35;47.89;94316.72;4985577;28;7298;-57
2022/11/06 06:05:44;;;;;;;;;;;;;;;24.34;48.18;94298.72;4976637;28;7267;-56
2022/11/06 06:08:15;;;;;;;;;;;;;;;24.34;47.89;94298.72;4994186;28;7200;-57
2022/11/06 06:10:46;;;;;;;;;;;;;;;24.36;47.61;94306.47;4990371;28;9415;-56
2022/11/06 06:13:21;;;;;;;;;;;;;;;24.34;47.67;94306.97;4981313;28;7314;-56
2022/11/06 06:16:18;;;;;;;;;;;;;;;24.37;47.56;94299.72;4994773;28;7238;-56
2022/11/06 06:18:50;;;;;;;;;;;;;;;24.36;47.73;94298.97;4997508;28;7273;-56
2022/11/06 06:21:19;;;;;;;;;;;;;;;24.36;48.07;94301.72;4994509;28;10272;-56
2022/11/06 06:23:45;;;;;;;;;;;;;;;24.34;47.78;94301.47;4982217;28;7407;-56
2022/11/06 06:26:14;;;;;;;;;;;;;;;24.35;47.83;94302.22;4981897;28;7191;-56
2022/11/06 06:29:07;;;;;;;;;;;;;;;24.35;48.22;94302.97;4995970;28;7424;-57
2022/11/06 06:31:42;;;;;;;;;;;;;;;24.33;48.18;94305.50;4962024;28;8721;-56
2022/11/06 06:34:33;;;;;;;;;;;;;;;24.35;47.32;94316.72;4973325;28;7284;-57
2022/11/06 06:37:00;;;;;;;;;;;;;;;24.35;47.65;94311.22;4964242;28;7022;-56
2022/11/06 06:39:54;;;;;;;;;;;;;;;24.36;47.45;94287.97;4967090;28;7234;-56
2022/11/06 06:42:20;;;;;;;;;;;;;;;24.35;47.88;94288.47;4971276;28;7615;-56
2022/11/06 06:44:46;;;;;;;;;;;;;;;24.36;47.79;94293.47;4951884;28;8287;-56
2022/11/06 06:47:16;;;;;;;;;;;;;;;24.38;47.79;94282.00;4970680;28;6964;-57
2022/11/06 06:49:43;;;;;;;;;;;;;;;24.39;47.95;94283.47;4971120;28;7275;-56
2022/11/06 06:52:10;;;;;;;;;;;;;;;24.37;47.72;94267.50;4970613;28;7447;-57
2022/11/06 06:54:38;;;;;;;;;;;;;;;24.36;47.93;94265.97;4951269;28;7227;-57
2022/11/06 06:57:13;;;;;;;;;;;;;;;24.38;47.88;94271.00;4956338;28;7248;-56
2022/11/06 06:59:58;;;;;;;;;;;;;;;24.40;48.31;94258.22;4937685;28;7246;-56
2022/11/06 07:02:26;;;;;;;;;;;;;;;24.47;47.79;94243.19;4969015;28;7256;-56
2022/11/06 07:05:02;;;;;;;;;;;;;;;24.53;47.36;94247.41;4963094;28;7077;-57
2022/11/06 07:07:28;;;;;;;;;;;;;;;24.58;47.67;94254.13;4980241;28;7081;-56
2022/11/06 07:09:55;;;;;;;;;;;;;;;24.61;47.73;94253.13;4988352;28;7222;-56
2022/11/06 07:12:41;;;;;;;;;;;;;;;24.63;47.08;94236.88;4975411;28;6986;-58
2022/11/06 07:15:34;;;;;;;;;;;;;;;24.63;47.01;94234.13;4975002;28;8699;-56
2022/11/06 07:18:05;;;;;;;;;;;;;;;24.64;47.25;94232.88;4992008;28;9092;-57
2022/11/06 07:20:38;;;;;;;;;;;;;;;24.64;47.24;94241.84;4976322;28;7312;-56
2022/11/06 07:23:11;;;;;;;;;;;;;;;24.66;47.08;94235.88;4979626;28;7237;-57
2022/11/06 07:26:07;;;;;;;;;;;;;;;24.68;46.75;94231.34;4997640;28;8350;-56
2022/11/06 07:28:59;;;;;;;;;;;;;;;24.69;46.75;94235.59;4957116;28;8582;-57
2022/11/06 07:31:33;;;;;;;;;;;;;;;24.69;46.36;94232.84;4979968;28;6985;-57
2022/11/06 07:34:29;;;;;;;;;;;;;;;24.72;46.67;94233.84;4954211;28;9158;-56
2022/11/06 07:37:13;;;;;;;;;;;;;;;24.69;46.84;94224.59;4886995;29;7581;-56
2022/11/06 07:39:45;;;;;;;;;;;;;;;24.67;46.21;94218.09;4876778;29;7186;-56
2022/11/06 07:42:11;;;;;;;;;;;;;;;24.68;46.11;94208.59;4881452;29;7236;-57
2022/11/06 07:44:37;;;;;;;;;;;;;;;24.68;46.44;94206.59;4887343;29;9021;-56
2022/11/06 07:47:05;;;;;;;;;;;;;;;24.72;46.24;94200.81;4888698;29;7209;-58
2022/11/06 07:49:31;;;;;;;;;;;;;;;24.75;46.80;94190.84;4888740;29;6971;-57
2022/11/06 07:51:58;;;;;;;;;;;;;;;24.75;46.42;94191.56;4882177;29;7554;-56
2022/11/06 07:54:25;;;;;;;;;;;;;;;24.75;46.08;94185.34;4883282;29;8034;-56
2022/11/06 07:57:06;;;;;;;;;;;;;;;24.76;46.30;94175.81;4890098;29;7192;-57
2022/11/06 07:59:33;;;;;;;;;;;;;;;24.73;46.30;94170.06;4887050;29;7558;-56
2022/11/06 08:02:16;;;;;;;;;;;;;;;24.77;46.22;94169.06;4889197;29;9346;-56
2022/11/06 08:04:49;;;;;;;;;;;;;;;24.80;46.61;94162.53;4902925;29;7025;-57
2022/11/06 08:07:15;;;;;;;;;;;;;;;24.83;46.49;94165.03;4913317;29;9135;-57
2022/11/06 08:09:43;;;;;;;;;;;;;;;24.86;45.81;94163.97;4915216;29;7129;-56
2022/11/06 08:12:16;;;;;;;;;;;;;;;24.83;46.60;94167.03;4916771;28;7234;-57
2022/11/06 08:14:52;;;;;;;;;;;;;;;24.81;46.89;94166.78;4992045;28;8796;-57
2022/11/06 08:17:30;;;;;;;;;;;;;;;24.77;47.00;94158.06;4992353;28;8178;-57
2022/11/06 08:19:59;;;;;;;;;;;;;;;24.78;46.82;94160.31;4999617;28;7220;-57
2022/11/06 08:22:27;;;;;;;;;;;;;;;24.75;46.81;94163.34;4971422;28;7534;-57
2022/11/06 08:25:03;;;;;;;;;;;;;;;24.73;46.91;94165.81;4989562;28;9013;-57
2022/11/06 08:27:31;;;;;;;;;;;;;;;24.78;46.30;94173.31;4989216;28;7097;-57
2022/11/06 08:29:58;;;;;;;;;;;;;;;24.74;46.51;94170.81;4985155;28;9035;-57
2022/11/06 08:33:19;;;;;;;;;;;;;;;24.70;46.49;94162.84;5001046;28;7284;-57
2022/11/06 08:36:05;;;;;;;;;;;;;;;24.65;47.22;94155.38;4933304;28;7006;-57
2022/11/06 08:38:32;;;;;;;;;;;;;;;24.66;47.70;94145.84;4932371;28;7073;-56
2022/11/06 08:41:04;;;;;;;;;;;;;;;24.67;47.15;94143.84;4917529;28;8245;-57
2022/11/06 08:43:50;;;;;;;;;;;;;;;24.65;47.74;94129.84;4925134;28;7653;-57
2022/11/06 08:46:19;;;;;;;;;;;;;;;24.68;48.08;94112.34;4928886;29;7345;-57
2022/11/06 08:48:45;;;;;;;;;;;;;;;24.66;47.85;94112.84;4932971;28;7370;-57
2022/11/06 08:51:26;;;;;;;;;;;;;;;24.65;48.07;94111.38;4932252;28;7437;-57
2022/11/06 08:54:16;;;;;;;;;;;;;;;24.68;50.23;94126.09;4918088;29;9217;-57
2022/11/06 08:56:53;;;;;;;;;;;;;;;24.73;48.26;94128.03;4927045;29;9401;-57
2022/11/06 08:59:31;;;;;;;;;;;;;;;24.77;47.96;94122.31;4933789;28;6989;-56
2022/11/06 09:02:12;;;;;;;;;;;;;;;24.77;47.73;94123.06;4930140;29;7566;-57
2022/11/06 09:04:46;;;;;;;;;;;;;;;24.79;48.17;94136.31;4933443;28;9805;-57
2022/11/06 09:07:14;;;;;;;;;;;;;;;24.79;47.66;94130.81;4934361;28;9079;-57
2022/11/06 09:09:59;;;;;;;;;;;;;;;24.79;47.83;94130.81;4946429;28;7092;-57
2022/11/06 09:12:28;;;;;;;;;;;;;;;24.76;48.48;94134.56;4993183;28;7217;-57
2022/11/06 09:14:56;;;;;;;;;;;;;;;24.75;47.70;94152.34;4974558;28;7227;-57
2022/11/06 09:17:23;;;;;;;;;;;;;;;24.78;47.88;94165.06;4977109;28;9632;-57
2022/11/06 09:19:54;;;;;;;;;;;;;;;24.76;47.53;94167.56;4973477;28;9404;-57
2022/11/06 09:22:25;;;;;;;;;;;;;;;24.76;47.57;94165.56;4992693;28;7262;-58
2022/11/06 09:24:52;;;;;;;;;;;;;;;24.79;47.67;94170.06;4976907;28;9356;-58
2022/11/06 09:27:54;;;;;;;;;;;;;;;24.78;48.91;94152.06;4976482;28;9074;-58
2022/11/06 09:31:09;;;;;;;;;;;;;;;24.80;48.44;94160.53;4934430;28;7875;-57
2022/11/06 09:33:35;;;;;;;;;;;;;;;24.79;49.05;94175.56;4894387;29;7178;-57
2022/11/06 09:36:23;;;;;;;;;;;;;;;24.78;47.84;94170.56;4894576;29;7219;-58
2022/11/06 09:38:58;;;;;;;;;;;;;;;24.72;48.86;94156.81;4891469;29;7366;-57
2022/11/06 09:42:11;;;;;;;;;;;;;;;24.70;49.95;94156.59;4889862;29;7097;-57
2022/11/06 09:45:24;;;;;;;;;;;;;;;24.73;49.13;94145.31;4879642;29;9340;-57
2022/11/06 09:48:14;;;;;;;;;;;;;;;24.75;49.32;94153.06;4879504;29;7287;-56
2022/11/06 09:50:57;;;;;;;;;;;;;;;24.72;48.62;94137.56;4895723;29;8636;-56
2022/11/06 09:53:31;;;;;;;;;;;;;;;24.73;49.57;94127.31;4895792;29;7436;-57
2022/11/06 09:56:17;;;;;;;;;;;;;;;24.77;48.88;94138.81;4879077;29;7449;-57
2022/11/06 09:58:58;;;;;;;;;;;;;;;24.73;48.75;94131.56;4894142;29;7276;-58
2022/11/06 10:01:42;;;;;;;;;;;;;;;24.80;49.10;94127.53;4882275;29;6994;-57
2022/11/06 10:04:53;;;;;;;;;;;;;;;24.92;49.30;94136.44;4894618;29;7313;-57
2022/11/06 10:07:35;;;;;;;;;;;;;;;24.96;48.21;94145.16;4932474;29;6930;-57
2022/11/06 10:10:31;;;;;;;;;;;;;;;24.94;48.99;94136.69;4948497;28;7045;-59
2022/11/06 10:13:40;;;;;;;;;;;;;;;24.87;49.17;94131.72;4950925;28;9443;-57
2022/11/06 10:16:28;;;;;;;;;;;;;;;24.86;48.98;94127.50;4947175;28;9042;-57
2022/11/06 10:19:40;;;;;;;;;;;;;;;24.83;48.89;94136.78;4944401;28;7222;-57
2022/11/06 10:22:31;;;;;;;;;;;;;;;24.80;48.23;94140.53;4932065;28;7307;-56
2022/11/06 10:25:41;;;;;;;;;;;;;;;24.76;48.48;94126.31;4940336;28;7258;-57
2022/11/06 10:28:12;;;;;;;;;;;;;;;24.73;49.17;94131.56;4940065;28;6986;-56
2022/11/06 10:31:20;;;;;;;;;;;;;;;24.73;49.51;94119.06;4941264;28;7433;-56
2022/11/06 10:34:02;;;;;;;;;;;;;;;24.75;49.06;94111.09;4945321;28;6988;-56
2022/11/06 10:37:03;;;;;;;;;;;;;;;24.75;49.33;94111.09;4957423;28;7246;-57
2022/11/06 10:39:49;;;;;;;;;;;;;;;24.73;48.34;94104.03;4925041;29;9005;-56
2022/11/06 10:42:35;;;;;;;;;;;;;;;24.69;48.73;94100.81;4947937;28;8765;-56
2022/11/06 10:45:13;;;;;;;;;;;;;;;24.69;48.55;94100.81;4933784;28;8788;-56
2022/11/06 10:47:58;;;;;;;;;;;;;;;24.71;48.95;94097.56;4922036;29;8453;-57
2022/11/06 10:50:38;;;;;;;;;;;;;;;24.71;49.43;94097.56;4959663;28;7500;-57
2022/11/06 10:53:27;;;;;;;;;;;;;;;24.71;48.76;94103.06;4951390;28;7243;-57
2022/11/06 10:56:30;;;;;;;;;;;;;;;24.70;48.46;94085.84;4954676;28;7261;-56
2022/11/06 10:59:05;;;;;;;;;;;;;;;24.71;48.96;94090.06;4947059;28;7261;-56
2022/11/06 11:01:32;;;;;;;;;;;;;;;24.69;48.77;94095.31;4969608;28;8285;-56
2022/11/06 11:03:58;;;;;;;;;;;;;;;24.69;48.91;94094.56;4958905;28;7246;-56
2022/11/06 11:06:44;;;;;;;;;;;;;;;24.71;49.00;94097.56;4960783;28;7298;-56
2022/11/06 11:09:33;;;;;;;;;;;;;;;24.70;48.74;94085.84;4994405;28;7498;-56
2022/11/06 11:12:00;;;;;;;;;;;;;;;24.72;48.98;94090.81;4998115;28;7495;-57
2022/11/06 11:18:33;;;;;;;;;;;;;;;24.76;50.01;94088.56;4998223;28;7150;-56
2022/11/06 11:21:33;;;;;;;;;;;;;;;24.75;49.11;94080.81;4974322;28;7199;-57
2022/11/06 11:24:11;;;;;;;;;;;;;;;24.73;49.53;94076.53;4999170;28;9403;-56
2022/11/06 11:27:12;;;;;;;;;;;;;;;24.73;49.32;94082.03;4996392;28;6915;-57
2022/11/06 11:30:16;;;;;;;;;;;;;;;24.73;49.27;94070.28;4994363;28;7049;-57
2022/11/06 11:33:12;;;;;;;;;;;;;;;24.77;49.70;94057.06;4977135;28;7026;-56
2022/11/06 11:35:38;;;;;;;;;;;;;;;24.81;49.87;94045.75;4995049;28;7072;-56
2022/11/06 11:38:17;;;;;;;;;;;;;;;24.84;50.15;94033.75;4983943;28;7326;-57
2022/11/06 11:41:13;;;;;;;;;;;;;;;24.83;49.87;94040.50;4990754;28;8934;-56
2022/11/06 11:44:02;;;;;;;;;;;;;;;24.84;50.39;94033.75;4979662;28;7000;-56
2022/11/06 11:46:46;;;;;;;;;;;;;;;24.88;50.38;94040.44;4989055;28;7281;-56
2022/11/06 11:49:44;;;;;;;;;;;;;;;24.88;50.50;94023.91;4986498;28;7859;-56
2022/11/06 11:52:18;;;;;;;;;;;;;;;24.90;49.41;94026.19;4973515;28;9500;-56
2022/11/06 11:54:51;;;;;;;;;;;;;;;24.90;49.86;94032.44;4970040;28;9696;-56
2022/11/06 11:57:47;;;;;;;;;;;;;;;24.94;50.00;94032.13;4968593;28;7231;-56
2022/11/06 12:00:19;;;;;;;;;;;;;;;24.93;49.97;94025.13;4884725;29;6994;-56
2022/11/06 12:03:01;;;;;;;;;;;;;;;24.97;49.80;94025.63;4895955;29;8330;-57
2022/11/06 12:06:07;;;;;;;;;;;;;;;25.00;49.12;94024.56;4896915;29;7392;-57
2022/11/06 12:09:27;;;;;;;;;;;;;;;24.98;48.42;94021.59;4882121;29;8581;-56
2022/11/06 12:12:33;;;;;;;;;;;;;;;24.99;48.24;94017.59;4861564;29;7270;-57
2022/11/06 12:15:23;;;;;;;;;;;;;;;25.02;48.48;94013.78;4840696;29;7527;-57
2022/11/06 12:18:08;;;;;;;;;;;;;;;25.00;48.08;94005.31;4815438;29;8555;-57
2022/11/06 12:20:57;;;;;;;;;;;;;;;25.00;48.71;94005.31;4800744;29;7712;-57
2022/11/06 12:23:39;;;;;;;;;;;;;;;25.01;48.67;93998.56;4791395;29;7623;-57
2022/11/06 12:26:42;;;;;;;;;;;;;;;25.05;48.46;94004.50;4804052;29;8362;-56
2022/11/06 12:30:06;;;;;;;;;;;;;;;25.06;48.55;93997.72;4795003;29;7890;-57
2022/11/06 12:33:18;;;;;;;;;;;;;;;25.06;48.04;93992.22;4785711;29;7847;-57
2022/11/06 12:36:08;;;;;;;;;;;;;;;25.09;48.48;93994.72;4811800;29;7484;-57
2022/11/06 12:38:57;;;;;;;;;;;;;;;25.11;48.04;93986.69;4858561;29;9137;-57
2022/11/06 12:41:40;;;;;;;;;;;;;;;25.10;48.25;93979.69;4858479;29;9054;-56
2022/11/06 12:44:15;;;;;;;;;;;;;;;25.11;49.00;93980.44;4850447;29;9134;-57
2022/11/06 12:47:12;;;;;;;;;;;;;;;25.11;48.53;93969.41;4871310;29;7257;-57
2022/11/06 12:49:59;;;;;;;;;;;;;;;25.17;48.53;93968.09;4894957;29;9766;-57
2022/11/06 12:52:54;;;;;;;;;;;;;;;25.17;48.74;93962.59;4897006;29;7453;-56
2022/11/06 12:56:10;;;;;;;;;;;;;;;25.22;47.94;93969.28;4955848;28;7002;-57
2022/11/06 12:58:55;;;;;;;;;;;;;;;25.23;48.98;93965.25;4928562;29;9372;-57
2022/11/06 13:01:52;;;;;;;;;;;;;;;25.23;48.14;93963.25;4913713;29;7263;-56
2022/11/06 13:04:53;;;;;;;;;;;;;;;25.24;47.99;93967.53;4915924;29;7886;-56
2022/11/06 13:07:58;;;;;;;;;;;;;;;25.23;47.96;93960.50;4914981;29;8534;-57
2022/11/06 13:10:42;;;;;;;;;;;;;;;25.22;48.18;93961.03;4930000;29;6990;-57
2022/11/06 13:13:50;;;;;;;;;;;;;;;25.19;48.12;93951.81;4915155;29;7157;-57
2022/11/06 13:16:23;;;;;;;;;;;;;;;25.17;48.04;93956.34;4933686;28;7636;-56
2022/11/06 13:19:16;;;;;;;;;;;;;;;25.15;48.31;93953.34;4924165;28;9060;-57
2022/11/06 13:22:01;;;;;;;;;;;;;;;25.15;47.68;93951.34;4931051;28;9604;-57
2022/11/06 13:24:51;;;;;;;;;;;;;;;25.16;47.52;93949.34;4935226;28;9528;-57
2022/11/06 13:27:20;;;;;;;;;;;;;;;25.16;48.34;93952.09;4934064;28;7252;-56
2022/11/06 13:29:50;;;;;;;;;;;;;;;25.15;47.71;93951.34;4974159;28;7344;-56
2022/11/06 13:32:34;;;;;;;;;;;;;;;25.15;48.76;93953.34;4977500;28;9466;-57
2022/11/06 13:35:20;;;;;;;;;;;;;;;25.16;47.96;93954.88;4997503;28;7017;-58
2022/11/06 13:37:55;;;;;;;;;;;;;;;25.15;47.97;93961.63;5001023;28;8868;-56
2022/11/06 13:40:47;;;;;;;;;;;;;;;25.16;47.79;93963.13;4990552;28;7388;-56
2022/11/06 13:43:56;;;;;;;;;;;;;;;25.16;47.68;93966.63;4991407;28;7006;-56
2022/11/06 13:46:59;;;;;;;;;;;;;;;25.17;48.30;93983.84;4983704;28;7272;-56
2022/11/06 13:49:29;;;;;;;;;;;;;;;25.16;48.61;93983.13;4986068;28;8613;-56
2022/11/06 13:52:12;;;;;;;;;;;;;;;25.18;48.20;93971.59;4973466;28;9367;-56
2022/11/06 13:55:12;;;;;;;;;;;;;;;25.19;48.53;93953.81;4984982;28;6997;-57
2022/11/06 13:57:48;;;;;;;;;;;;;;;25.19;48.16;93934.53;4989278;28;8606;-56
2022/11/06 14:00:25;;;;;;;;;;;;;;;25.20;48.43;93930.53;4983441;28;7242;-57
2022/11/06 14:02:54;;;;;;;;;;;;;;;25.16;47.97;93936.34;4988877;28;7220;-56
2022/11/06 14:05:48;;;;;;;;;;;;;;;25.18;47.63;93938.56;4993146;28;7140;-57
2022/11/06 14:08:40;;;;;;;;;;;;;;;25.19;48.16;93948.31;5041226;23;7295;-86
2022/11/06 14:11:15;;;;;;;;;;;;;;;25.24;48.49;93940.00;4986467;28;7291;-87
2022/11/06 14:13:58;;;;;;;;;;;;;;;25.24;48.26;93951.00;4986839;28;7081;-86
2022/11/06 14:16:33;;;;;;;;;;;;;;;25.24;48.54;93945.50;5009716;28;7265;-86
2022/11/06 14:19:02;;;;;;;;;;;;;;;25.22;47.99;93937.03;5003413;28;8741;-87
2022/11/06 14:21:45;;;;;;;;;;;;;;;25.21;48.05;93937.53;4993369;28;9368;-86
2022/11/06 14:24:31;;;;;;;;;;;;;;;25.22;48.62;93941.78;4983106;28;8981;-85
2022/11/06 14:27:07;;;;;;;;;;;;;;;25.23;48.68;93944.00;4999425;28;9060;-86
2022/11/06 14:29:33;;;;;;;;;;;;;;;25.26;47.73;93942.22;4982309;28;9350;-86
2022/11/06 14:32:09;;;;;;;;;;;;;;;25.26;48.18;93967.00;4998401;28;8963;-86
2022/11/06 14:34:37;;;;;;;;;;;;;;;25.23;48.55;93954.25;5002887;28;8820;-86
2022/11/06 14:37:25;;;;;;;;;;;;;;;25.35;47.36;93961.13;4980670;28;7234;-85